TPC825 CYQX-CYYT
Flight info
| Callsign | TPC825 |
|---|---|
| Flight time | 1h 12m |
| Altitude | 3000 |
| Route | AARAN |
| Aircraft | C172/L-SFG/C |
Departure
| Time | 2026-04-26 17:49 |
|---|---|
| Airport | Gander International Airport (CYQX) |
Arrival
| Time | 2026-04-26 19:01 |
|---|---|
| Airport | St. John's International Airport (CYYT) |
| Time | Latitude | Longitude | Altitude | Speed | Heading |
|---|---|---|---|---|---|
| 2026-04-26 17:38 | 48.94194 | -54.57365 | 448 ft | 0 kts | 61° |
| 2026-04-26 17:41 | 48.94197 | -54.57354 | 448 ft | 5 kts | 70° |
| 2026-04-26 17:41 | 48.94200 | -54.57344 | 448 ft | 0 kts | 64° |
| 2026-04-26 17:42 | 48.94200 | -54.57341 | 448 ft | 2 kts | 64° |
| 2026-04-26 17:42 | 48.94229 | -54.57242 | 447 ft | 17 kts | 66° |
| 2026-04-26 17:42 | 48.94306 | -54.57028 | 440 ft | 28 kts | 64° |
| 2026-04-26 17:43 | 48.94344 | -54.56795 | 445 ft | 22 kts | 154° |
| 2026-04-26 17:43 | 48.94195 | -54.56712 | 445 ft | 24 kts | 159° |
| 2026-04-26 17:43 | 48.94035 | -54.56592 | 447 ft | 27 kts | 162° |
| 2026-04-26 17:43 | 48.93841 | -54.56613 | 449 ft | 29 kts | 188° |
| 2026-04-26 17:44 | 48.93633 | -54.56668 | 451 ft | 31 kts | 190° |
| 2026-04-26 17:44 | 48.93420 | -54.56735 | 453 ft | 29 kts | 185° |
| 2026-04-26 17:44 | 48.93274 | -54.56698 | 454 ft | 20 kts | 106° |
| 2026-04-26 17:44 | 48.93263 | -54.56611 | 454 ft | 0 kts | 95° |
| 2026-04-26 17:45 | 48.93263 | -54.56610 | 454 ft | 1 kts | 95° |
| 2026-04-26 17:45 | 48.93250 | -54.56526 | 455 ft | 15 kts | 102° |
| 2026-04-26 17:45 | 48.93292 | -54.56436 | 455 ft | 0 kts | 9° |
| 2026-04-26 17:46 | 48.93363 | -54.56418 | 453 ft | 33 kts | 9° |
| 2026-04-26 17:46 | 48.93740 | -54.56299 | 451 ft | 72 kts | 12° |
| 2026-04-26 17:46 | 48.94256 | -54.56122 | 574 ft | 81 kts | 10° |
| 2026-04-26 17:46 | 48.94828 | -54.55958 | 708 ft | 88 kts | 9° |
| 2026-04-26 17:47 | 48.95423 | -54.55827 | 960 ft | 83 kts | 5° |
| 2026-04-26 17:47 | 48.95610 | -54.55798 | 1012 ft | 85 kts | 5° |
| 2026-04-26 17:47 | 48.95643 | -54.55792 | 1019 ft | 86 kts | 6° |
| 2026-04-26 17:48 | 48.95820 | -54.55752 | 1076 ft | 84 kts | 6° |
| 2026-04-26 17:49 | 48.96405 | -54.55580 | 1227 ft | 92 kts | 24° |
| 2026-04-26 17:49 | 48.96784 | -54.54828 | 1434 ft | 92 kts | 82° |
| 2026-04-26 17:49 | 48.96593 | -54.53908 | 1638 ft | 92 kts | 133° |
| 2026-04-26 17:49 | 48.96124 | -54.53343 | 1870 ft | 89 kts | 151° |
| 2026-04-26 17:50 | 48.95617 | -54.52871 | 2102 ft | 81 kts | 156° |
| 2026-04-26 17:50 | 48.95201 | -54.52576 | 2184 ft | 88 kts | 156° |
| 2026-04-26 17:50 | 48.95089 | -54.52490 | 2235 ft | 84 kts | 154° |
| 2026-04-26 17:51 | 48.94578 | -54.52149 | 2399 ft | 87 kts | 167° |
| 2026-04-26 17:51 | 48.94019 | -54.52096 | 2623 ft | 79 kts | 189° |
| 2026-04-26 17:51 | 48.93454 | -54.52127 | 2807 ft | 77 kts | 183° |
| 2026-04-26 17:51 | 48.92893 | -54.52044 | 2910 ft | 86 kts | 174° |
| 2026-04-26 17:52 | 48.92329 | -54.51851 | 3104 ft | 82 kts | 163° |
| 2026-04-26 17:52 | 48.91758 | -54.51577 | 3246 ft | 83 kts | 167° |
| 2026-04-26 17:52 | 48.91206 | -54.51206 | 3330 ft | 95 kts | 156° |
| 2026-04-26 17:52 | 48.90572 | -54.50865 | 3407 ft | 95 kts | 168° |
| 2026-04-26 17:53 | 48.89901 | -54.50674 | 3396 ft | 101 kts | 174° |
| 2026-04-26 17:53 | 48.89181 | -54.50518 | 3330 ft | 111 kts | 172° |
| 2026-04-26 17:53 | 48.88431 | -54.50215 | 3301 ft | 113 kts | 165° |
| 2026-04-26 17:54 | 48.86984 | -54.49253 | 3235 ft | 117 kts | 146° |
| 2026-04-26 17:54 | 48.86338 | -54.48447 | 3149 ft | 120 kts | 144° |
| 2026-04-26 17:54 | 48.85674 | -54.47719 | 3150 ft | 116 kts | 147° |
| 2026-04-26 17:54 | 48.85052 | -54.46905 | 3044 ft | 123 kts | 135° |
| 2026-04-26 17:55 | 48.84492 | -54.45891 | 2970 ft | 125 kts | 133° |
| 2026-04-26 17:55 | 48.83927 | -54.44960 | 3059 ft | 115 kts | 136° |
| 2026-04-26 17:55 | 48.83365 | -54.44102 | 3069 ft | 114 kts | 137° |
| 2026-04-26 17:55 | 48.82797 | -54.43260 | 3081 ft | 113 kts | 138° |
| 2026-04-26 17:56 | 48.82240 | -54.42442 | 3085 ft | 113 kts | 138° |
| 2026-04-26 17:56 | 48.81110 | -54.40795 | 3103 ft | 112 kts | 139° |
| 2026-04-26 17:57 | 48.79990 | -54.39168 | 3122 ft | 112 kts | 138° |
| 2026-04-26 17:57 | 48.79429 | -54.38352 | 3120 ft | 112 kts | 138° |
| 2026-04-26 17:57 | 48.78864 | -54.37533 | 3130 ft | 112 kts | 138° |
| 2026-04-26 17:57 | 48.78303 | -54.36716 | 3130 ft | 112 kts | 138° |
| 2026-04-26 17:58 | 48.76638 | -54.34304 | 3159 ft | 109 kts | 138° |
| 2026-04-26 17:59 | 48.75534 | -54.32704 | 3161 ft | 111 kts | 138° |
| 2026-04-26 17:59 | 48.74971 | -54.31889 | 3162 ft | 111 kts | 138° |
| 2026-04-26 17:59 | 48.74418 | -54.31089 | 3161 ft | 111 kts | 138° |
| 2026-04-26 17:59 | 48.73860 | -54.30282 | 3162 ft | 111 kts | 138° |
| 2026-04-26 18:00 | 48.73299 | -54.29469 | 3160 ft | 111 kts | 138° |
| 2026-04-26 18:00 | 48.72750 | -54.28674 | 3161 ft | 110 kts | 138° |
| 2026-04-26 18:00 | 48.72191 | -54.27866 | 3161 ft | 111 kts | 138° |
| 2026-04-26 18:00 | 48.71634 | -54.27061 | 3159 ft | 110 kts | 138° |
| 2026-04-26 18:01 | 48.71078 | -54.26259 | 3161 ft | 111 kts | 139° |
| 2026-04-26 18:01 | 48.70517 | -54.25448 | 3163 ft | 112 kts | 139° |
| 2026-04-26 18:01 | 48.69961 | -54.24637 | 3163 ft | 113 kts | 138° |
| 2026-04-26 18:01 | 48.69393 | -54.23819 | 3164 ft | 112 kts | 139° |
| 2026-04-26 18:02 | 48.68825 | -54.23002 | 3168 ft | 113 kts | 139° |
| 2026-04-26 18:02 | 48.68449 | -54.22461 | 3169 ft | 113 kts | 139° |
| 2026-04-26 18:02 | 48.67693 | -54.21372 | 3169 ft | 113 kts | 139° |
| 2026-04-26 18:02 | 48.67124 | -54.20552 | 3169 ft | 113 kts | 139° |
| 2026-04-26 18:03 | 48.66553 | -54.19729 | 3169 ft | 113 kts | 138° |
| 2026-04-26 18:03 | 48.65982 | -54.18908 | 3169 ft | 113 kts | 138° |
| 2026-04-26 18:03 | 48.65415 | -54.18090 | 3170 ft | 113 kts | 139° |
| 2026-04-26 18:03 | 48.64998 | -54.17490 | 3169 ft | 113 kts | 139° |
| 2026-04-26 18:04 | 48.64919 | -54.17376 | 3167 ft | 113 kts | 139° |
| 2026-04-26 18:04 | 48.64729 | -54.17108 | 3155 ft | 114 kts | 140° |
| 2026-04-26 18:04 | 48.64413 | -54.16672 | 3140 ft | 115 kts | 140° |
| 2026-04-26 18:05 | 48.63295 | -54.15050 | 3177 ft | 112 kts | 138° |
| 2026-04-26 18:05 | 48.62731 | -54.14234 | 3176 ft | 113 kts | 138° |
| 2026-04-26 18:05 | 48.62160 | -54.13413 | 3175 ft | 113 kts | 138° |
| 2026-04-26 18:05 | 48.61600 | -54.12604 | 3175 ft | 112 kts | 139° |
| 2026-04-26 18:06 | 48.61036 | -54.11791 | 3174 ft | 112 kts | 139° |
| 2026-04-26 18:06 | 48.60470 | -54.10980 | 3173 ft | 111 kts | 139° |
| 2026-04-26 18:06 | 48.59910 | -54.10174 | 3172 ft | 111 kts | 139° |
| 2026-04-26 18:06 | 48.59348 | -54.09367 | 3172 ft | 111 kts | 139° |
| 2026-04-26 18:07 | 48.58786 | -54.08562 | 3172 ft | 111 kts | 138° |
| 2026-04-26 18:07 | 48.58224 | -54.07757 | 3172 ft | 111 kts | 139° |
| 2026-04-26 18:07 | 48.57663 | -54.06951 | 3172 ft | 111 kts | 139° |
| 2026-04-26 18:07 | 48.57289 | -54.06416 | 3172 ft | 111 kts | 139° |
| 2026-04-26 18:08 | 48.56544 | -54.05347 | 3170 ft | 111 kts | 139° |
| 2026-04-26 18:08 | 48.55984 | -54.04544 | 3170 ft | 111 kts | 139° |
| 2026-04-26 18:08 | 48.55420 | -54.03740 | 3173 ft | 112 kts | 139° |
| 2026-04-26 18:08 | 48.54851 | -54.02923 | 3175 ft | 113 kts | 139° |
| 2026-04-26 18:09 | 48.54282 | -54.02109 | 3174 ft | 114 kts | 139° |
| 2026-04-26 18:09 | 48.53708 | -54.01287 | 3173 ft | 113 kts | 139° |
| 2026-04-26 18:09 | 48.53138 | -54.00473 | 3171 ft | 112 kts | 138° |
| 2026-04-26 18:09 | 48.52579 | -53.99674 | 3171 ft | 112 kts | 139° |
| 2026-04-26 18:10 | 48.52012 | -53.98865 | 3171 ft | 112 kts | 139° |
| 2026-04-26 18:10 | 48.51446 | -53.98056 | 3172 ft | 112 kts | 139° |
| 2026-04-26 18:10 | 48.50876 | -53.97241 | 3173 ft | 113 kts | 139° |
| 2026-04-26 18:10 | 48.50306 | -53.96426 | 3171 ft | 112 kts | 139° |
| 2026-04-26 18:11 | 48.49735 | -53.95611 | 3171 ft | 112 kts | 139° |
| 2026-04-26 18:11 | 48.49174 | -53.94813 | 3171 ft | 112 kts | 139° |
| 2026-04-26 18:11 | 48.48605 | -53.94001 | 3171 ft | 112 kts | 139° |
| 2026-04-26 18:11 | 48.48039 | -53.93192 | 3170 ft | 112 kts | 139° |
| 2026-04-26 18:12 | 48.47473 | -53.92385 | 3170 ft | 112 kts | 138° |
| 2026-04-26 18:12 | 48.46906 | -53.91577 | 3170 ft | 112 kts | 139° |
| 2026-04-26 18:12 | 48.46346 | -53.90780 | 3170 ft | 112 kts | 139° |
| 2026-04-26 18:12 | 48.45780 | -53.89975 | 3169 ft | 112 kts | 138° |
| 2026-04-26 18:13 | 48.45215 | -53.89171 | 3169 ft | 112 kts | 139° |
| 2026-04-26 18:13 | 48.44650 | -53.88366 | 3169 ft | 111 kts | 138° |
| 2026-04-26 18:13 | 48.44085 | -53.87562 | 3169 ft | 112 kts | 139° |
| 2026-04-26 18:13 | 48.43710 | -53.87027 | 3169 ft | 112 kts | 139° |
| 2026-04-26 18:14 | 48.42961 | -53.85962 | 3168 ft | 112 kts | 139° |
| 2026-04-26 18:14 | 48.42395 | -53.85158 | 3168 ft | 112 kts | 139° |
| 2026-04-26 18:14 | 48.41829 | -53.84354 | 3169 ft | 112 kts | 139° |
| 2026-04-26 18:14 | 48.41266 | -53.83556 | 3170 ft | 112 kts | 139° |
| 2026-04-26 18:15 | 48.40694 | -53.82743 | 3169 ft | 113 kts | 139° |
| 2026-04-26 18:15 | 48.40120 | -53.81929 | 3171 ft | 113 kts | 139° |
| 2026-04-26 18:15 | 48.39553 | -53.81124 | 3170 ft | 113 kts | 139° |
| 2026-04-26 18:15 | 48.38979 | -53.80309 | 3170 ft | 113 kts | 139° |
| 2026-04-26 18:16 | 48.38408 | -53.79498 | 3168 ft | 113 kts | 139° |
| 2026-04-26 18:16 | 48.37264 | -53.77878 | 3169 ft | 113 kts | 139° |
| 2026-04-26 18:16 | 48.36700 | -53.77077 | 3168 ft | 112 kts | 139° |
| 2026-04-26 18:17 | 48.36126 | -53.76265 | 3168 ft | 112 kts | 139° |
| 2026-04-26 18:17 | 48.35556 | -53.75458 | 3167 ft | 112 kts | 139° |
| 2026-04-26 18:17 | 48.34986 | -53.74673 | 3170 ft | 112 kts | 139° |
| 2026-04-26 18:17 | 48.34409 | -53.73850 | 3172 ft | 115 kts | 139° |
| 2026-04-26 18:18 | 48.33831 | -53.73022 | 3170 ft | 114 kts | 139° |
| 2026-04-26 18:18 | 48.33262 | -53.72215 | 3167 ft | 113 kts | 139° |
| 2026-04-26 18:18 | 48.33036 | -53.71895 | 3164 ft | 113 kts | 139° |
| 2026-04-26 18:18 | 48.32469 | -53.71072 | 3170 ft | 112 kts | 140° |
| 2026-04-26 18:19 | 48.31902 | -53.70281 | 3168 ft | 112 kts | 139° |
| 2026-04-26 18:19 | 48.31333 | -53.69483 | 3169 ft | 112 kts | 139° |
| 2026-04-26 18:19 | 48.30763 | -53.68682 | 3167 ft | 111 kts | 139° |
| 2026-04-26 18:19 | 48.30200 | -53.67887 | 3167 ft | 111 kts | 139° |
| 2026-04-26 18:20 | 48.29637 | -53.67093 | 3167 ft | 111 kts | 139° |
| 2026-04-26 18:20 | 48.29072 | -53.66295 | 3167 ft | 111 kts | 139° |
| 2026-04-26 18:20 | 48.28514 | -53.65509 | 3169 ft | 112 kts | 139° |
| 2026-04-26 18:20 | 48.28127 | -53.64964 | 3172 ft | 113 kts | 139° |
| 2026-04-26 18:21 | 48.27356 | -53.63880 | 3176 ft | 116 kts | 139° |
| 2026-04-26 18:21 | 48.26762 | -53.63040 | 3176 ft | 117 kts | 139° |
| 2026-04-26 18:21 | 48.26172 | -53.62211 | 3171 ft | 115 kts | 139° |
| 2026-04-26 18:21 | 48.25601 | -53.61405 | 3171 ft | 114 kts | 139° |
| 2026-04-26 18:22 | 48.25022 | -53.60591 | 3169 ft | 113 kts | 139° |
| 2026-04-26 18:22 | 48.24449 | -53.59783 | 3169 ft | 113 kts | 139° |
| 2026-04-26 18:22 | 48.23876 | -53.58978 | 3170 ft | 113 kts | 139° |
| 2026-04-26 18:22 | 48.23301 | -53.58169 | 3169 ft | 113 kts | 139° |
| 2026-04-26 18:23 | 48.22732 | -53.57372 | 3168 ft | 113 kts | 139° |
| 2026-04-26 18:23 | 48.22161 | -53.56567 | 3168 ft | 113 kts | 139° |
| 2026-04-26 18:23 | 48.21588 | -53.55762 | 3167 ft | 113 kts | 139° |
| 2026-04-26 18:23 | 48.21015 | -53.54959 | 3167 ft | 112 kts | 139° |
| 2026-04-26 18:24 | 48.20452 | -53.54168 | 3167 ft | 112 kts | 139° |
| 2026-04-26 18:24 | 48.19884 | -53.53371 | 3165 ft | 112 kts | 139° |
| 2026-04-26 18:24 | 48.19318 | -53.52575 | 3163 ft | 111 kts | 139° |
| 2026-04-26 18:24 | 48.18752 | -53.51781 | 3164 ft | 111 kts | 139° |
| 2026-04-26 18:25 | 48.18193 | -53.50999 | 3165 ft | 111 kts | 139° |
| 2026-04-26 18:25 | 48.17623 | -53.50200 | 3165 ft | 111 kts | 139° |
| 2026-04-26 18:25 | 48.17055 | -53.49405 | 3165 ft | 111 kts | 139° |
| 2026-04-26 18:25 | 48.16489 | -53.48611 | 3165 ft | 112 kts | 139° |
| 2026-04-26 18:26 | 48.15920 | -53.47813 | 3165 ft | 112 kts | 139° |
| 2026-04-26 18:26 | 48.15358 | -53.47027 | 3165 ft | 112 kts | 139° |
| 2026-04-26 18:26 | 48.14789 | -53.46231 | 3165 ft | 112 kts | 139° |
| 2026-04-26 18:26 | 48.14217 | -53.45431 | 3165 ft | 112 kts | 139° |
| 2026-04-26 18:27 | 48.13648 | -53.44637 | 3164 ft | 112 kts | 139° |
| 2026-04-26 18:27 | 48.13080 | -53.43842 | 3164 ft | 112 kts | 139° |
| 2026-04-26 18:27 | 48.12511 | -53.43046 | 3164 ft | 112 kts | 139° |
| 2026-04-26 18:27 | 48.11949 | -53.42260 | 3164 ft | 112 kts | 139° |
| 2026-04-26 18:28 | 48.11378 | -53.41462 | 3164 ft | 112 kts | 139° |
| 2026-04-26 18:28 | 48.10807 | -53.40665 | 3164 ft | 112 kts | 139° |
| 2026-04-26 18:28 | 48.10236 | -53.39869 | 3164 ft | 112 kts | 139° |
| 2026-04-26 18:28 | 48.09671 | -53.39082 | 3164 ft | 112 kts | 139° |
| 2026-04-26 18:29 | 48.09483 | -53.38819 | 3163 ft | 112 kts | 139° |
| 2026-04-26 18:29 | 48.08952 | -53.38078 | 3163 ft | 112 kts | 139° |
| 2026-04-26 18:29 | 48.08378 | -53.37277 | 3164 ft | 112 kts | 139° |
| 2026-04-26 18:30 | 48.07810 | -53.36486 | 3165 ft | 113 kts | 139° |
| 2026-04-26 18:30 | 48.07236 | -53.35684 | 3164 ft | 112 kts | 139° |
| 2026-04-26 18:30 | 48.06662 | -53.34885 | 3164 ft | 112 kts | 139° |
| 2026-04-26 18:30 | 48.06095 | -53.34096 | 3165 ft | 113 kts | 139° |
| 2026-04-26 18:31 | 48.05517 | -53.33292 | 3174 ft | 113 kts | 139° |
| 2026-04-26 18:31 | 48.04937 | -53.32485 | 3175 ft | 114 kts | 139° |
| 2026-04-26 18:31 | 48.04357 | -53.31678 | 3176 ft | 114 kts | 139° |
| 2026-04-26 18:31 | 48.03785 | -53.30882 | 3175 ft | 113 kts | 139° |
| 2026-04-26 18:32 | 48.03209 | -53.30080 | 3174 ft | 113 kts | 139° |
| 2026-04-26 18:32 | 48.02630 | -53.29275 | 3174 ft | 113 kts | 139° |
| 2026-04-26 18:32 | 48.02062 | -53.28487 | 3175 ft | 113 kts | 139° |
| 2026-04-26 18:32 | 48.01483 | -53.27684 | 3174 ft | 113 kts | 139° |
| 2026-04-26 18:33 | 48.00910 | -53.26887 | 3175 ft | 113 kts | 139° |
| 2026-04-26 18:33 | 48.00330 | -53.26083 | 3175 ft | 114 kts | 139° |
| 2026-04-26 18:33 | 47.99748 | -53.25274 | 3175 ft | 114 kts | 139° |
| 2026-04-26 18:33 | 47.99164 | -53.24465 | 3175 ft | 114 kts | 139° |
| 2026-04-26 18:34 | 47.98591 | -53.23670 | 3175 ft | 114 kts | 139° |
| 2026-04-26 18:34 | 47.98011 | -53.22862 | 3174 ft | 114 kts | 139° |
| 2026-04-26 18:34 | 47.97430 | -53.22060 | 3174 ft | 114 kts | 139° |
| 2026-04-26 18:34 | 47.96848 | -53.21255 | 3175 ft | 114 kts | 139° |
| 2026-04-26 18:35 | 47.96273 | -53.20456 | 3174 ft | 114 kts | 140° |
| 2026-04-26 18:35 | 47.95687 | -53.19646 | 3173 ft | 114 kts | 139° |
| 2026-04-26 18:35 | 47.95103 | -53.18837 | 3174 ft | 114 kts | 139° |
| 2026-04-26 18:35 | 47.94518 | -53.18028 | 3174 ft | 115 kts | 139° |
| 2026-04-26 18:36 | 47.93942 | -53.17230 | 3173 ft | 114 kts | 139° |
| 2026-04-26 18:36 | 47.93357 | -53.16421 | 3172 ft | 114 kts | 139° |
| 2026-04-26 18:36 | 47.92776 | -53.15620 | 3170 ft | 113 kts | 139° |
| 2026-04-26 18:36 | 47.92208 | -53.14835 | 3170 ft | 112 kts | 139° |
| 2026-04-26 18:37 | 47.91635 | -53.14041 | 3170 ft | 112 kts | 139° |
| 2026-04-26 18:37 | 47.91058 | -53.13245 | 3170 ft | 113 kts | 139° |
| 2026-04-26 18:37 | 47.90484 | -53.12452 | 3170 ft | 112 kts | 139° |
| 2026-04-26 18:37 | 47.89911 | -53.11664 | 3170 ft | 112 kts | 139° |
| 2026-04-26 18:38 | 47.89346 | -53.10880 | 3169 ft | 112 kts | 140° |
| 2026-04-26 18:38 | 47.88773 | -53.10091 | 3168 ft | 112 kts | 139° |
| 2026-04-26 18:38 | 47.88203 | -53.09306 | 3168 ft | 111 kts | 139° |
| 2026-04-26 18:38 | 47.87631 | -53.08519 | 3169 ft | 112 kts | 139° |
| 2026-04-26 18:39 | 47.87057 | -53.07726 | 3170 ft | 112 kts | 139° |
| 2026-04-26 18:39 | 47.86486 | -53.06942 | 3170 ft | 113 kts | 139° |
| 2026-04-26 18:39 | 47.85913 | -53.06151 | 3170 ft | 113 kts | 139° |
| 2026-04-26 18:39 | 47.85335 | -53.05357 | 3170 ft | 113 kts | 139° |
| 2026-04-26 18:40 | 47.84755 | -53.04557 | 3170 ft | 113 kts | 139° |
| 2026-04-26 18:40 | 47.84174 | -53.03758 | 3171 ft | 114 kts | 139° |
| 2026-04-26 18:40 | 47.83601 | -53.02970 | 3170 ft | 113 kts | 139° |
| 2026-04-26 18:40 | 47.83018 | -53.02168 | 3170 ft | 113 kts | 139° |
| 2026-04-26 18:41 | 47.82634 | -53.01639 | 3170 ft | 113 kts | 139° |
| 2026-04-26 18:41 | 47.82057 | -53.00846 | 3169 ft | 113 kts | 140° |
| 2026-04-26 18:41 | 47.81516 | -53.00098 | 3362 ft | 100 kts | 139° |
| 2026-04-26 18:41 | 47.80867 | -52.99203 | 3637 ft | 92 kts | 140° |
| 2026-04-26 18:42 | 47.80559 | -52.98783 | 3780 ft | 89 kts | 139° |
| 2026-04-26 18:42 | 47.80114 | -52.98172 | 3968 ft | 86 kts | 140° |
| 2026-04-26 18:42 | 47.79673 | -52.97566 | 4141 ft | 85 kts | 140° |
| 2026-04-26 18:42 | 47.79241 | -52.96972 | 4301 ft | 85 kts | 140° |
| 2026-04-26 18:43 | 47.78797 | -52.96362 | 4432 ft | 88 kts | 140° |
| 2026-04-26 18:43 | 47.78340 | -52.95737 | 4565 ft | 91 kts | 140° |
| 2026-04-26 18:43 | 47.77868 | -52.95091 | 4693 ft | 93 kts | 140° |
| 2026-04-26 18:43 | 47.77382 | -52.94427 | 4832 ft | 96 kts | 139° |
| 2026-04-26 18:44 | 47.76889 | -52.93753 | 4957 ft | 98 kts | 139° |
| 2026-04-26 18:44 | 47.76378 | -52.93054 | 5090 ft | 101 kts | 140° |
| 2026-04-26 18:44 | 47.75852 | -52.92333 | 5167 ft | 108 kts | 140° |
| 2026-04-26 18:44 | 47.75270 | -52.91545 | 5174 ft | 118 kts | 143° |
| 2026-04-26 18:45 | 47.74497 | -52.91114 | 5178 ft | 122 kts | 169° |
| 2026-04-26 18:45 | 47.73666 | -52.90776 | 5173 ft | 124 kts | 167° |
| 2026-04-26 18:45 | 47.72865 | -52.90453 | 5165 ft | 118 kts | 167° |
| 2026-04-26 18:45 | 47.72083 | -52.90136 | 5161 ft | 114 kts | 167° |
| 2026-04-26 18:46 | 47.71321 | -52.89828 | 5160 ft | 112 kts | 167° |
| 2026-04-26 18:46 | 47.70574 | -52.89526 | 5160 ft | 110 kts | 167° |
| 2026-04-26 18:46 | 47.69846 | -52.89232 | 5158 ft | 109 kts | 167° |
| 2026-04-26 18:46 | 47.69111 | -52.88934 | 5157 ft | 109 kts | 167° |
| 2026-04-26 18:47 | 47.68379 | -52.88642 | 5159 ft | 109 kts | 167° |
| 2026-04-26 18:47 | 47.67649 | -52.88349 | 5160 ft | 109 kts | 167° |
| 2026-04-26 18:47 | 47.66918 | -52.88055 | 5160 ft | 109 kts | 167° |
| 2026-04-26 18:47 | 47.66187 | -52.87760 | 5160 ft | 109 kts | 167° |
| 2026-04-26 18:48 | 47.65458 | -52.87466 | 5160 ft | 109 kts | 167° |
| 2026-04-26 18:48 | 47.64737 | -52.87174 | 5158 ft | 109 kts | 167° |
| 2026-04-26 18:48 | 47.64009 | -52.86879 | 5160 ft | 108 kts | 167° |
| 2026-04-26 18:48 | 47.63279 | -52.86584 | 5159 ft | 108 kts | 167° |
| 2026-04-26 18:49 | 47.62553 | -52.86291 | 5160 ft | 108 kts | 167° |
| 2026-04-26 18:49 | 47.61826 | -52.85998 | 5160 ft | 108 kts | 167° |
| 2026-04-26 18:49 | 47.61121 | -52.85713 | 5233 ft | 102 kts | 167° |
| 2026-04-26 18:49 | 47.60438 | -52.85437 | 5252 ft | 102 kts | 167° |
| 2026-04-26 18:50 | 47.59744 | -52.85156 | 5255 ft | 104 kts | 167° |
| 2026-04-26 18:50 | 47.59039 | -52.84873 | 5258 ft | 106 kts | 167° |
| 2026-04-26 18:50 | 47.58327 | -52.84585 | 5260 ft | 106 kts | 167° |
| 2026-04-26 18:50 | 47.57617 | -52.84299 | 5261 ft | 107 kts | 167° |
| 2026-04-26 18:51 | 47.56895 | -52.84007 | 5251 ft | 109 kts | 166° |
| 2026-04-26 18:51 | 47.56247 | -52.83381 | 5140 ft | 114 kts | 139° |
| 2026-04-26 18:51 | 47.55643 | -52.82603 | 4998 ft | 115 kts | 141° |
| 2026-04-26 18:51 | 47.55041 | -52.81824 | 4848 ft | 114 kts | 141° |
| 2026-04-26 18:52 | 47.54763 | -52.81468 | 4778 ft | 113 kts | 141° |
| 2026-04-26 18:52 | 47.54227 | -52.80780 | 4630 ft | 112 kts | 141° |
| 2026-04-26 18:52 | 47.53646 | -52.80033 | 4498 ft | 109 kts | 141° |
| 2026-04-26 18:52 | 47.53071 | -52.79294 | 4361 ft | 109 kts | 141° |
| 2026-04-26 18:53 | 47.52492 | -52.78551 | 4223 ft | 111 kts | 141° |
| 2026-04-26 18:53 | 47.51908 | -52.77802 | 4077 ft | 111 kts | 141° |
| 2026-04-26 18:53 | 47.51525 | -52.77355 | 4035 ft | 105 kts | 141° |
| 2026-04-26 18:53 | 47.51053 | -52.76547 | 3962 ft | 104 kts | 130° |
| 2026-04-26 18:54 | 47.50659 | -52.75616 | 3844 ft | 109 kts | 118° |
| 2026-04-26 18:54 | 47.50375 | -52.74547 | 3706 ft | 114 kts | 106° |
| 2026-04-26 18:54 | 47.50229 | -52.73393 | 3558 ft | 117 kts | 95° |
| 2026-04-26 18:54 | 47.50234 | -52.72191 | 3408 ft | 118 kts | 84° |
| 2026-04-26 18:55 | 47.50397 | -52.71009 | 3257 ft | 116 kts | 73° |
| 2026-04-26 18:55 | 47.50702 | -52.69924 | 3110 ft | 112 kts | 62° |
| 2026-04-26 18:55 | 47.51121 | -52.68976 | 2969 ft | 108 kts | 51° |
| 2026-04-26 18:55 | 47.51631 | -52.68185 | 2834 ft | 104 kts | 40° |
| 2026-04-26 18:56 | 47.52196 | -52.67566 | 2707 ft | 101 kts | 30° |
| 2026-04-26 18:56 | 47.52814 | -52.67102 | 2580 ft | 98 kts | 20° |
| 2026-04-26 18:56 | 47.53407 | -52.66636 | 2467 ft | 95 kts | 25° |
| 2026-04-26 18:56 | 47.54027 | -52.66634 | 2359 ft | 90 kts | 357° |
| 2026-04-26 18:57 | 47.54652 | -52.66626 | 2256 ft | 89 kts | 351° |
| 2026-04-26 18:57 | 47.55060 | -52.66703 | 2181 ft | 90 kts | 349° |
| 2026-04-26 18:57 | 47.55736 | -52.66965 | 2049 ft | 92 kts | 339° |
| 2026-04-26 18:57 | 47.56207 | -52.67256 | 1943 ft | 94 kts | 332° |
| 2026-04-26 18:58 | 47.56762 | -52.67742 | 1846 ft | 90 kts | 323° |
| 2026-04-26 18:58 | 47.57231 | -52.68306 | 1760 ft | 81 kts | 316° |
| 2026-04-26 18:58 | 47.57625 | -52.68812 | 1747 ft | 69 kts | 316° |
| 2026-04-26 18:58 | 47.57989 | -52.69257 | 1656 ft | 73 kts | 322° |
| 2026-04-26 18:59 | 47.58414 | -52.69751 | 1467 ft | 83 kts | 318° |
| 2026-04-26 18:59 | 47.58858 | -52.70312 | 1305 ft | 83 kts | 319° |
| 2026-04-26 18:59 | 47.59271 | -52.70906 | 1134 ft | 83 kts | 316° |
| 2026-04-26 18:59 | 47.59707 | -52.71462 | 967 ft | 82 kts | 317° |
| 2026-04-26 19:00 | 47.60120 | -52.72024 | 814 ft | 79 kts | 316° |
| 2026-04-26 19:00 | 47.60205 | -52.72142 | 774 ft | 80 kts | 316° |
| 2026-04-26 19:00 | 47.60616 | -52.72658 | 665 ft | 72 kts | 320° |
| 2026-04-26 19:00 | 47.60911 | -52.73036 | 578 ft | 68 kts | 316° |
| 2026-04-26 19:01 | 47.61193 | -52.73402 | 489 ft | 66 kts | 320° |
| 2026-04-26 19:01 | 47.61486 | -52.73771 | 470 ft | 31 kts | 320° |
| 2026-04-26 19:01 | 47.61585 | -52.73840 | 472 ft | 14 kts | 37° |
| 2026-04-26 19:01 | 47.61631 | -52.73734 | 471 ft | 10 kts | 55° |
| 2026-04-26 19:02 | 47.61681 | -52.73676 | 471 ft | 9 kts | 14° |
| 2026-04-26 19:02 | 47.61749 | -52.73677 | 471 ft | 11 kts | 359° |
| 2026-04-26 19:02 | 47.61833 | -52.73686 | 471 ft | 13 kts | 355° |
| 2026-04-26 19:02 | 47.61897 | -52.73690 | 471 ft | 15 kts | 356° |
| 2026-04-26 19:03 | 47.61990 | -52.73668 | 470 ft | 10 kts | 75° |
| 2026-04-26 19:03 | 47.62035 | -52.73623 | 470 ft | 4 kts | 315° |
| 2026-04-26 19:03 | 47.62036 | -52.73625 | 470 ft | 0 kts | 283° |